Pagrindinis puslapis
METAR-TAF:

METAR-TAF

Oro uostai :

Seward, Aliaska, Jungtinės Amerikos Valstijos

platuma: 60-07N, ilguma: 149-27W, Aukštis: 9 m

Dabartinis oras

Ataskaita buvo paskelbta 22 minutes, ne 09:53 UTC
Vėjas 14 kt iš Šiaurės/Šiaurės Rytų su gūsio iki 21 kt
Temperatūra -6°C
Drėgmė 79%
Slėgis 997 hPa
Matomumas: 16.1 km
Apsiniaukę ne aukštis 4600 ft

METAR: PAWD 260953Z AUTO 02014G21KT 10SM OVC046 M06/M09 A2943 RMK AO2 UPB03E15 SLP966 P0000 T10561089 TSNO $

Laikas: 01:15 (10:15 UTC)


TAF: trūkstamas

Orai ataskaitas ir orų prognozės (METAR, TAF).

turimą stotys yra geltonos ir raudonos taškus žemėlapyje.

Perkelti pele per norėdami pamatyti stoties vardą.

Tada spustelėkite, norėdami matyti oro stebėjimo ir prognozės.

Norėdami pakeisti žemėlapį: spustelėkite ant žalios mygtukų su juodo kryžiaus žemyn,; žalią mygtuką su brūkšneliu, jei norite nutolinti; arba žalių rodyklių gretimoms žemėlapius.


METAR-TAF: